Time;durP1;ratioP1;P1;durP2;ratioP2;P2;SDS_P1;SDS_P2;PMS_P1;PMS_P2;Temp;Humidity;BMP_temperature;BMP_pressure;BME280_temperature;BME280_humidity;BME280_pressure;Samples;Min_cycle;Max_cycle;Signal;HPM_P1;HPM_P2
2023/06/21 00:01:41;;;;;;;34.75;19.00;;;20.30;99.90;;;;;;5002824;28;20214;-91
2023/06/21 00:04:08;;;;;;;35.05;18.90;;;20.30;99.90;;;;;;5015135;28;20213;-92
2023/06/21 00:06:48;;;;;;;30.48;18.15;;;20.20;99.90;;;;;;5012282;28;20207;-91
2023/06/21 00:09:26;;;;;;;34.80;19.70;;;20.20;99.90;;;;;;5015827;28;20213;-91
2023/06/21 00:12:08;;;;;;;39.97;21.02;;;20.20;99.90;;;;;;5007896;28;20226;-91
2023/06/21 00:14:48;;;;;;;35.72;20.85;;;20.10;99.90;;;;;;5001091;28;20224;-90
2023/06/21 00:17:30;;;;;;;;;;;;;;;;;;;;;
2023/06/21 00:20:11;;;;;;;38.47;21.08;;;20.00;99.90;;;;;;5015421;28;20257;-89
2023/06/21 00:22:45;;;;;;;40.75;22.30;;;20.00;99.90;;;;;;5000348;28;20256;-90
2023/06/21 00:25:17;;;;;;;38.25;22.73;;;19.90;99.90;;;;;;5018875;28;20624;-89
2023/06/21 00:28:13;;;;;;;37.28;21.70;;;20.00;99.90;;;;;;5003746;28;20210;-92
2023/06/21 00:30:50;;;;;;;33.00;20.52;;;19.90;99.90;;;;;;5015242;28;20535;-90
2023/06/21 00:33:36;;;;;;;41.47;23.65;;;19.90;99.90;;;;;;5017594;28;20603;-89
2023/06/21 00:36:08;;;;;;;43.22;23.10;;;19.80;99.90;;;;;;5018172;28;20236;-89
2023/06/21 00:38:49;;;;;;;42.05;23.52;;;19.90;99.90;;;;;;5015225;28;20223;-90
2023/06/21 00:41:36;;;;;;;41.10;23.05;;;19.80;99.90;;;;;;5003747;28;20214;-89
2023/06/21 00:44:30;;;;;;;42.60;22.08;;;19.80;99.90;;;;;;4997073;28;20198;-90
2023/06/21 00:47:10;;;;;;;39.03;21.42;;;19.80;99.90;;;;;;4999522;28;20214;-90
2023/06/21 00:49:56;;;;;;;38.42;21.98;;;19.80;99.90;;;;;;4998342;28;20218;-90
2023/06/21 00:52:52;;;;;;;30.80;18.90;;;19.80;99.90;;;;;;5008928;28;20737;-93
2023/06/21 00:55:25;;;;;;;33.10;19.30;;;19.80;99.90;;;;;;5007874;28;20602;-91
2023/06/21 00:58:20;;;;;;;34.72;20.67;;;19.80;99.90;;;;;;5001777;28;20233;-91
2023/06/21 01:00:57;;;;;;;34.78;20.27;;;19.80;99.90;;;;;;5001901;28;20217;-92
2023/06/21 01:03:27;;;;;;;36.83;20.17;;;19.80;99.90;;;;;;5016841;28;20300;-93
2023/06/21 01:06:52;;;;;;;33.33;19.38;;;19.70;99.90;;;;;;4996511;28;20210;-91
2023/06/21 01:10:00;;;;;;;32.72;18.83;;;19.80;99.90;;;;;;4968875;28;20309;-91
2023/06/21 01:12:56;;;;;;;32.25;18.85;;;19.70;99.90;;;;;;5010296;28;20249;-91
2023/06/21 01:15:51;;;;;;;29.92;18.08;;;19.70;99.90;;;;;;5019203;28;20561;-93
2023/06/21 01:18:40;;;;;;;30.45;17.75;;;19.60;99.90;;;;;;5016645;28;20198;-91
2023/06/21 01:21:11;;;;;;;31.67;18.25;;;19.60;99.90;;;;;;5003216;28;20207;-90
2023/06/21 01:24:20;;;;;;;29.30;17.90;;;19.60;99.90;;;;;;5002315;28;20225;-89
2023/06/21 01:27:16;;;;;;;28.73;16.55;;;19.60;99.90;;;;;;4957273;28;20640;-91
2023/06/21 01:30:14;;;;;;;29.25;16.92;;;19.50;99.90;;;;;;4994703;28;20217;-91
2023/06/21 01:32:53;;;;;;;32.13;17.92;;;19.60;99.90;;;;;;4999446;28;20330;-91
2023/06/21 01:35:41;;;;;;;30.02;17.35;;;19.50;99.90;;;;;;5000594;28;20202;-92
2023/06/21 01:41:39;;;;;;;;;;;;;;;;;;;;;
2023/06/21 01:44:20;;;;;;;27.27;16.75;;;19.40;99.90;;;;;;5015901;28;20297;-90
2023/06/21 01:46:51;;;;;;;28.40;17.10;;;19.40;99.90;;;;;;4999580;28;20210;-90
2023/06/21 01:49:37;;;;;;;28.13;17.60;;;19.50;99.90;;;;;;5015615;28;20210;-91
2023/06/21 01:52:10;;;;;;;27.95;16.92;;;19.50;99.90;;;;;;5006748;28;20213;-92
2023/06/21 01:54:51;;;;;;;31.27;17.80;;;19.50;99.90;;;;;;5013745;28;20236;-90
2023/06/21 01:57:39;;;;;;;27.50;16.45;;;19.50;99.90;;;;;;5000810;28;20220;-91
2023/06/21 02:00:17;;;;;;;26.73;16.05;;;19.50;99.90;;;;;;5024234;28;20214;-92
2023/06/21 02:03:11;;;;;;;30.30;19.58;;;19.50;99.90;;;;;;5026220;28;20206;-92
2023/06/21 02:05:48;;;;;;;27.15;17.50;;;19.50;99.90;;;;;;5034858;28;20198;-90
2023/06/21 02:08:23;;;;;;;29.52;17.70;;;19.50;99.90;;;;;;5016128;28;20218;-90
2023/06/21 02:11:17;;;;;;;;;;;;;;;;;;;;;
2023/06/21 02:16:55;;;;;;;30.00;17.70;;;19.40;99.90;;;;;;5024106;28;20249;-91
2023/06/21 02:19:39;;;;;;;31.65;18.48;;;19.40;99.90;;;;;;5003746;28;20234;-90
2023/06/21 02:22:15;;;;;;;30.38;18.75;;;19.40;99.90;;;;;;5001773;28;20301;-93
2023/06/21 02:25:18;;;;;;;;;;;;;;;;;;;;;
2023/06/21 02:27:55;;;;;;;32.08;19.98;;;19.30;99.90;;;;;;5028893;28;20216;-91
2023/06/21 02:30:46;;;;;;;32.97;19.90;;;19.30;99.90;;;;;;5021546;28;20212;-91
2023/06/21 02:33:24;;;;;;;35.28;20.17;;;19.30;99.90;;;;;;5011032;28;20237;-92
2023/06/21 02:36:08;;;;;;;31.00;19.65;;;19.40;99.90;;;;;;5004711;28;20209;-91
2023/06/21 02:38:52;;;;;;;35.55;21.15;;;19.30;99.90;;;;;;5012232;28;20281;-91
2023/06/21 02:41:36;;;;;;;33.42;20.27;;;19.30;99.90;;;;;;5013928;28;20217;-92
2023/06/21 02:44:33;;;;;;;34.20;21.35;;;19.40;99.90;;;;;;5001139;28;20210;-91
2023/06/21 02:47:18;;;;;;;31.65;20.33;;;19.40;99.90;;;;;;5005343;28;20561;-91
2023/06/21 02:50:36;;;;;;;36.85;22.33;;;19.50;99.90;;;;;;5017267;28;20212;-90
2023/06/21 02:53:17;;;;;;;40.47;22.35;;;19.60;99.90;;;;;;5013079;28;20239;-91
2023/06/21 02:56:06;;;;;;;38.30;22.63;;;19.50;99.90;;;;;;5016023;28;20518;-92
2023/06/21 02:58:43;;;;;;;39.63;22.35;;;19.50;99.90;;;;;;5001186;28;20199;-91
2023/06/21 03:01:17;;;;;;;37.55;21.13;;;19.60;99.90;;;;;;5009280;28;20340;-92
2023/06/21 03:03:53;;;;;;;39.83;23.08;;;19.60;99.90;;;;;;5019418;28;20198;-93
2023/06/21 03:06:34;;;;;;;40.85;23.35;;;19.50;99.90;;;;;;5028307;28;20298;-92
2023/06/21 03:09:08;;;;;;;41.80;23.33;;;19.50;99.90;;;;;;4998746;28;20309;-91
2023/06/21 03:11:57;;;;;;;46.85;24.23;;;19.50;99.90;;;;;;4996710;28;20544;-91
2023/06/21 03:14:43;;;;;;;43.80;23.45;;;19.40;99.90;;;;;;5002109;28;20307;-92
2023/06/21 03:17:37;;;;;;;48.50;25.67;;;19.50;99.90;;;;;;5004177;28;20216;-91
2023/06/21 03:20:37;;;;;;;45.50;24.52;;;19.40;99.90;;;;;;5005470;28;20274;-90
2023/06/21 03:23:27;;;;;;;55.63;26.77;;;19.40;99.90;;;;;;4996932;28;20707;-89
2023/06/21 03:26:19;;;;;;;52.78;25.30;;;19.30;99.90;;;;;;4999225;28;20674;-90
2023/06/21 03:29:09;;;;;;;;;;;;;;;;;;;;;
2023/06/21 03:31:54;;;;;;;57.55;27.42;;;19.20;99.90;;;;;;5044431;28;20213;-90
2023/06/21 03:34:40;;;;;;;55.25;26.67;;;19.10;99.90;;;;;;5009986;28;20249;-92
2023/06/21 03:37:34;;;;;;;53.67;26.80;;;19.20;99.90;;;;;;5012889;28;20270;-92
2023/06/21 03:40:13;;;;;;;52.53;26.17;;;19.20;99.90;;;;;;5008497;28;20320;-90
2023/06/21 03:43:01;;;;;;;51.80;26.13;;;19.20;99.90;;;;;;5010543;28;20309;-91
2023/06/21 03:45:39;;;;;;;51.22;26.55;;;19.20;99.90;;;;;;5008996;28;20333;-90
2023/06/21 03:48:38;;;;;;;57.67;25.98;;;19.20;99.90;;;;;;5009565;28;20690;-92
2023/06/21 03:51:28;;;;;;;56.25;27.27;;;19.10;99.90;;;;;;5009071;28;20581;-89
2023/06/21 03:54:05;;;;;;;57.08;27.10;;;19.20;99.90;;;;;;5007649;28;20236;-92
2023/06/21 03:57:12;;;;;;;56.17;27.27;;;19.30;99.90;;;;;;4986375;28;20245;-90
2023/06/21 04:00:11;;;;;;;54.47;26.88;;;19.30;99.90;;;;;;5019551;28;20252;-90
2023/06/21 04:03:07;;;;;;;57.50;27.55;;;19.20;99.90;;;;;;5011877;28;20686;-91
2023/06/21 04:05:49;;;;;;;57.10;27.05;;;19.20;99.90;;;;;;5028859;28;20288;-91
2023/06/21 04:08:55;;;;;;;54.42;26.98;;;19.20;99.90;;;;;;5011579;28;20233;-90
2023/06/21 04:11:41;;;;;;;51.45;27.10;;;19.20;99.90;;;;;;5003582;28;20298;-91
2023/06/21 04:14:35;;;;;;;55.95;26.20;;;19.20;99.90;;;;;;5022031;28;20237;-92
2023/06/21 04:17:38;;;;;;;52.72;25.30;;;19.20;99.90;;;;;;5009186;28;20217;-90
2023/06/21 04:20:22;;;;;;;55.67;28.02;;;19.20;99.90;;;;;;5013933;28;20298;-91
2023/06/21 04:23:22;;;;;;;54.10;27.08;;;19.20;99.90;;;;;;5003199;28;20218;-90
2023/06/21 04:26:15;;;;;;;57.72;27.88;;;19.20;99.90;;;;;;5011478;28;20578;-91
2023/06/21 04:29:10;;;;;;;59.42;27.63;;;19.20;99.90;;;;;;5002820;28;20213;-90
2023/06/21 04:31:55;;;;;;;58.60;27.17;;;19.20;99.90;;;;;;5028554;28;20324;-91
2023/06/21 04:34:36;;;;;;;66.95;28.85;;;19.20;99.90;;;;;;5002304;28;20222;-91
2023/06/21 04:37:15;;;;;;;60.15;28.50;;;19.30;99.90;;;;;;5017089;28;20235;-90
2023/06/21 04:39:51;;;;;;;58.65;27.40;;;19.30;99.90;;;;;;5012747;28;20642;-89
2023/06/21 04:43:02;;;;;;;63.67;28.60;;;19.40;99.90;;;;;;5009822;28;20218;-90
2023/06/21 04:45:58;;;;;;;;;;;;;;;;;;;;;
2023/06/21 04:48:39;;;;;;;60.92;28.55;;;19.50;99.90;;;;;;5031457;28;20209;-93
2023/06/21 04:51:47;;;;;;;54.78;29.00;;;19.60;99.90;;;;;;5021036;28;20216;-91
2023/06/21 04:54:32;;;;;;;55.25;28.80;;;19.70;99.90;;;;;;5027292;28;20236;-92
2023/06/21 04:57:45;;;;;;;58.08;28.48;;;19.80;99.90;;;;;;5019462;28;20305;-91
2023/06/21 05:00:38;;;;;;;56.42;27.77;;;19.80;99.90;;;;;;5026148;28;20292;-90
2023/06/21 05:03:20;;;;;;;58.35;29.08;;;20.00;99.90;;;;;;5016152;28;20225;-92
2023/06/21 05:06:51;;;;;;;54.35;27.52;;;19.90;99.90;;;;;;5012115;28;20232;-91
2023/06/21 05:09:32;;;;;;;53.88;28.13;;;20.10;99.90;;;;;;5034996;28;20595;-90
2023/06/21 05:12:39;;;;;;;54.70;28.70;;;20.20;99.90;;;;;;5006434;28;20269;-92
2023/06/21 05:15:18;;;;;;;54.40;28.25;;;20.30;99.90;;;;;;5000096;28;20242;-91
2023/06/21 05:18:06;;;;;;;;;;;;;;;;;;;;;
2023/06/21 05:20:56;;;;;;;54.22;28.83;;;20.50;99.90;;;;;;5019197;28;20226;-94
2023/06/21 05:23:48;;;;;;;;;;;;;;;;;;;;;
2023/06/21 05:26:32;;;;;;;55.17;28.38;;;20.70;99.90;;;;;;5022436;28;20280;-90
2023/06/21 05:29:34;;;;;;;54.60;28.83;;;20.80;99.90;;;;;;5011238;28;20211;-91
2023/06/21 05:32:26;;;;;;;;;;;;;;;;;;;;;
2023/06/21 05:51:03;;;;;;;51.65;25.70;;;21.40;99.90;;;;;;4897211;29;20219;-92
2023/06/21 05:54:04;;;;;;;50.20;27.58;;;21.40;99.90;;;;;;4942320;28;20302;-92
2023/06/21 06:01:25;;;;;;;;;;;;;;;;;;;;;
2023/06/21 06:04:14;;;;;;;48.03;26.20;;;21.60;99.90;;;;;;4988727;23;20329;-79
2023/06/21 06:06:42;;;;;;;47.67;26.70;;;21.90;99.90;;;;;;5054323;23;20333;-78
2023/06/21 06:09:09;;;;;;;45.17;25.67;;;21.80;99.90;;;;;;5069977;28;20315;-78
2023/06/21 06:11:37;;;;;;;44.22;25.33;;;22.00;99.90;;;;;;5052865;28;20207;-78
2023/06/21 06:14:04;;;;;;;44.38;26.08;;;22.30;99.90;;;;;;5070362;28;20243;-79
2023/06/21 06:16:31;;;;;;;43.00;25.90;;;22.40;99.90;;;;;;5070329;28;20213;-79
2023/06/21 06:18:57;;;;;;;42.10;23.70;;;22.60;99.90;;;;;;5035576;28;20595;-79
2023/06/21 06:21:24;;;;;;;37.80;22.63;;;22.90;99.90;;;;;;5052483;28;20220;-78
2023/06/21 06:23:52;;;;;;;38.38;24.00;;;23.20;99.90;;;;;;5052202;28;20229;-78
2023/06/21 06:26:26;;;;;;;39.30;23.52;;;23.50;99.90;;;;;;5070491;28;20241;-79
2023/06/21 06:28:54;;;;;;;35.60;22.27;;;23.80;99.90;;;;;;5068683;28;20659;-79
2023/06/21 06:31:26;;;;;;;38.30;23.58;;;24.30;99.90;;;;;;5051950;28;20291;-77
2023/06/21 06:33:53;;;;;;;32.67;21.10;;;24.60;99.90;;;;;;5069858;28;20238;-78
2023/06/21 06:36:20;;;;;;;32.70;20.63;;;24.80;99.90;;;;;;5052038;28;20215;-80
2023/06/21 06:38:48;;;;;;;34.92;21.27;;;25.00;99.90;;;;;;5061712;28;20703;-79
2023/06/21 06:41:16;;;;;;;30.88;20.48;;;25.40;99.90;;;;;;5069913;28;20211;-79
2023/06/21 06:43:43;;;;;;;31.80;20.42;;;25.60;99.90;;;;;;5069749;28;20643;-79
2023/06/21 06:46:11;;;;;;;29.23;19.42;;;25.70;99.90;;;;;;5051778;28;20717;-81
2023/06/21 06:48:38;;;;;;;29.75;20.23;;;25.70;99.90;;;;;;5052258;28;20212;-80
2023/06/21 06:51:04;;;;;;;30.40;19.58;;;26.50;99.90;;;;;;5067975;28;20241;-79
2023/06/21 06:53:31;;;;;;;27.65;19.30;;;26.60;99.90;;;;;;5051337;28;20232;-79
2023/06/21 06:55:59;;;;;;;27.70;19.25;;;26.90;99.90;;;;;;5043646;28;20204;-79
2023/06/21 06:58:27;;;;;;;24.35;18.08;;;;;;;;;;5060354;28;20212;-79
2023/06/21 07:00:55;;;;;;;27.90;19.23;;;28.30;99.90;;;;;;5069571;28;20299;-79
2023/06/21 07:03:21;;;;;;;25.55;18.35;;;28.70;99.90;;;;;;5051671;28;20208;-79
2023/06/21 07:05:49;;;;;;;26.90;17.70;;;29.10;99.90;;;;;;5051337;28;20319;-79
2023/06/21 07:08:17;;;;;;;23.08;18.23;;;29.60;99.90;;;;;;5051138;28;20240;-80
2023/06/21 07:10:44;;;;;;;23.50;17.90;;;29.90;99.90;;;;;;5069105;28;20232;-81
2023/06/21 07:13:11;;;;;;;25.23;18.98;;;29.90;99.90;;;;;;5051116;28;20212;-79
2023/06/21 07:15:38;;;;;;;23.63;17.55;;;30.10;99.90;;;;;;5050653;28;20291;-79
2023/06/21 07:18:05;;;;;;;24.25;18.13;;;30.00;99.90;;;;;;5051067;28;20212;-80
2023/06/21 07:20:32;;;;;;;23.92;17.85;;;30.10;99.90;;;;;;5069143;28;20204;-78
2023/06/21 07:23:00;;;;;;;23.83;17.65;;;29.80;99.90;;;;;;5055584;28;20217;-77
2023/06/21 07:25:27;;;;;;;23.95;18.52;;;30.10;99.90;;;;;;5051023;28;20664;-79
2023/06/21 07:27:54;;;;;;;26.35;18.90;;;30.20;99.90;;;;;;5069101;28;20232;-80
2023/06/21 07:30:22;;;;;;;20.38;16.23;;;30.60;99.90;;;;;;5050783;28;20208;-81
2023/06/21 07:32:50;;;;;;;23.83;18.70;;;30.20;99.90;;;;;;5041849;28;20311;-80
2023/06/21 07:35:18;;;;;;;21.42;16.38;;;30.30;99.90;;;;;;5067450;28;20258;-79
2023/06/21 07:37:45;;;;;;;20.70;16.15;;;29.40;99.90;;;;;;5059671;28;20228;-82
2023/06/21 07:40:13;;;;;;;21.10;16.20;;;29.40;99.90;;;;;;5068397;28;20215;-79
2023/06/21 07:42:40;;;;;;;20.48;15.07;;;29.90;99.90;;;;;;5051418;28;20204;-81
2023/06/21 07:45:08;;;;;;;17.52;14.80;;;30.30;99.90;;;;;;5067090;28;20303;-78
2023/06/21 07:47:36;;;;;;;17.88;14.43;;;30.50;99.90;;;;;;5050483;28;20224;-79
2023/06/21 07:50:04;;;;;;;20.83;16.33;;;30.20;99.90;;;;;;5050856;28;20741;-78
2023/06/21 07:52:47;;;;;;;20.35;15.50;;;30.10;99.90;;;;;;5052725;28;20668;-78
2023/06/21 07:55:14;;;;;;;21.00;16.08;;;30.10;99.90;;;;;;5050061;28;20319;-82
2023/06/21 07:57:41;;;;;;;18.80;14.43;;;30.00;99.90;;;;;;5050140;28;20209;-79
2023/06/21 08:00:11;;;;;;;15.63;12.93;;;30.00;99.90;;;;;;5050761;28;20200;-78
2023/06/21 08:02:41;;;;;;;18.55;14.20;;;29.90;99.90;;;;;;5051455;28;20288;-76
2023/06/21 08:05:08;;;;;;;17.83;13.77;;;29.60;99.90;;;;;;5050145;28;20229;-79
2023/06/21 08:07:35;;;;;;;19.02;13.82;;;29.50;99.90;;;;;;5068260;28;20251;-78
2023/06/21 08:10:05;;;;;;;16.83;13.93;;;29.40;99.90;;;;;;5049617;28;20224;-78
2023/06/21 08:12:32;;;;;;;19.75;15.52;;;29.60;99.90;;;;;;5050937;28;20216;-77
2023/06/21 08:15:03;;;;;;;20.02;15.75;;;30.00;99.90;;;;;;5068292;28;20301;-80
2023/06/21 08:17:30;;;;;;;18.70;14.73;;;30.10;99.90;;;;;;5068448;28;20209;-77
2023/06/21 08:19:58;;;;;;;18.42;14.35;;;29.90;99.90;;;;;;5055032;28;20227;-77
2023/06/21 08:22:25;;;;;;;17.50;13.25;;;29.60;99.90;;;;;;5049561;28;20253;-78
2023/06/21 08:24:56;;;;;;;17.08;13.15;;;29.40;99.90;;;;;;5050367;28;20256;-78
2023/06/21 08:27:23;;;;;;;19.15;12.85;;;29.70;99.90;;;;;;5050042;28;20215;-79
2023/06/21 08:29:51;;;;;;;15.50;11.82;;;29.90;99.90;;;;;;5050697;28;20315;-80
2023/06/21 08:32:21;;;;;;;15.38;11.88;;;30.00;99.90;;;;;;5036394;28;20719;-77
2023/06/21 08:34:52;;;;;;;14.23;11.68;;;30.20;99.90;;;;;;5066109;28;20239;-78
2023/06/21 08:37:25;;;;;;;11.52;10.20;;;30.50;99.90;;;;;;5042746;28;20209;-76
2023/06/21 08:39:52;;;;;;;13.27;10.70;;;30.60;99.90;;;;;;5066559;28;20243;-76
2023/06/21 08:42:19;;;;;;;13.93;10.77;;;30.50;99.90;;;;;;5049915;28;20215;-80
2023/06/21 08:44:47;;;;;;;12.27;10.95;;;30.50;99.90;;;;;;5050172;28;20297;-78
2023/06/21 08:47:14;;;;;;;13.02;11.52;;;30.50;99.90;;;;;;5049679;28;20258;-77
2023/06/21 08:49:43;;;;;;;12.18;10.93;;;30.50;99.90;;;;;;5049405;28;20216;-78
2023/06/21 08:52:17;;;;;;;15.05;11.35;;;30.60;99.90;;;;;;5032498;28;20698;-78
2023/06/21 08:54:53;;;;;;;12.55;10.13;;;30.50;99.90;;;;;;5048789;28;20233;-77
2023/06/21 08:57:24;;;;;;;11.32;10.13;;;30.10;99.90;;;;;;5049551;28;20286;-79
2023/06/21 09:00:00;;;;;;;12.38;10.65;;;30.20;99.90;;;;;;5049452;28;20316;-78
2023/06/21 09:02:44;;;;;;;12.85;10.90;;;30.50;99.90;;;;;;5049950;28;20564;-79
2023/06/21 09:05:47;;;;;;;12.15;9.98;;;30.80;99.90;;;;;;5065906;28;20285;-76
2023/06/21 09:08:18;;;;;;;16.58;12.23;;;30.90;99.90;;;;;;5041695;28;20301;-79
2023/06/21 09:10:50;;;;;;;12.52;10.07;;;30.80;99.90;;;;;;5067467;28;20244;-77
2023/06/21 09:13:24;;;;;;;13.07;10.95;;;30.70;99.90;;;;;;5049613;28;20235;-80
2023/06/21 09:15:54;;;;;;;10.38;9.10;;;30.60;99.90;;;;;;5050537;28;20566;-77
2023/06/21 09:18:22;;;;;;;10.80;9.63;;;30.60;99.90;;;;;;5049876;28;20297;-78
2023/06/21 09:20:50;;;;;;;17.20;10.40;;;30.60;99.90;;;;;;5049189;28;20212;-78
2023/06/21 09:23:17;;;;;;;13.50;9.93;;;30.80;99.90;;;;;;5067841;28;20306;-77
2023/06/21 09:25:44;;;;;;;11.93;9.57;;;31.10;99.90;;;;;;5068221;28;20209;-77
2023/06/21 09:28:12;;;;;;;11.85;10.05;;;31.10;99.90;;;;;;5049708;28;20231;-78
2023/06/21 09:30:40;;;;;;;11.93;8.57;;;31.30;99.90;;;;;;5066520;28;20205;-77
2023/06/21 09:33:08;;;;;;;10.70;9.15;;;31.20;99.90;;;;;;5049668;28;20227;-77
2023/06/21 09:35:38;;;;;;;11.13;7.55;;;31.20;99.90;;;;;;5049100;28;20236;-78
2023/06/21 09:38:26;;;;;;;9.02;7.82;;;31.20;99.90;;;;;;5049061;28;20700;-78
2023/06/21 09:40:53;;;;;;;11.65;8.27;;;31.30;99.90;;;;;;5049570;28;20667;-77
2023/06/21 09:43:20;;;;;;;7.43;6.70;;;31.30;99.90;;;;;;5049743;28;20209;-77
2023/06/21 09:46:04;;;;;;;6.40;5.78;;;31.20;99.90;;;;;;5049628;28;20221;-76
2023/06/21 09:48:33;;;;;;;7.47;6.35;;;31.30;99.90;;;;;;5050051;28;20612;-78
2023/06/21 09:51:02;;;;;;;6.28;5.68;;;30.80;99.90;;;;;;5041920;28;20212;-77
2023/06/21 09:53:29;;;;;;;8.80;7.90;;;30.70;99.90;;;;;;5066855;28;20224;-78
2023/06/21 09:55:56;;;;;;;7.95;7.15;;;30.50;99.90;;;;;;5066503;28;20228;-78
2023/06/21 09:58:23;;;;;;;9.13;8.23;;;30.30;99.90;;;;;;5049355;28;20687;-79
2023/06/21 10:00:51;;;;;;;8.30;7.50;;;30.40;99.90;;;;;;5049300;28;20228;-77
2023/06/21 10:03:22;;;;;;;7.82;6.95;;;30.30;99.90;;;;;;5067651;28;20227;-76
2023/06/21 10:05:56;;;;;;;8.18;7.22;;;30.30;99.90;;;;;;5068663;28;20625;-78
2023/06/21 10:08:25;;;;;;;9.88;8.05;;;30.00;99.90;;;;;;5052590;28;20590;-79
2023/06/21 10:10:52;;;;;;;6.82;6.25;;;29.60;99.90;;;;;;5069564;28;20213;-76
2023/06/21 10:13:33;;;;;;;9.80;7.65;;;29.30;99.90;;;;;;5052508;28;20740;-76
2023/06/21 10:16:04;;;;;;;9.02;8.13;;;29.20;99.90;;;;;;5044406;28;20239;-76
2023/06/21 10:18:32;;;;;;;9.05;7.78;;;29.30;99.90;;;;;;5070303;28;20204;-76
2023/06/21 10:21:04;;;;;;;11.70;9.73;;;29.40;99.90;;;;;;5062418;28;20236;-77
2023/06/21 10:23:34;;;;;;;10.63;9.48;;;29.50;99.90;;;;;;5069678;28;20221;-76
2023/06/21 10:26:05;;;;;;;10.35;9.45;;;29.40;99.90;;;;;;5061775;28;20556;-75
2023/06/21 10:28:35;;;;;;;10.57;9.50;;;29.50;99.90;;;;;;5070049;28;20672;-79
2023/06/21 10:31:09;;;;;;;10.30;9.30;;;29.40;99.90;;;;;;5044804;28;20208;-76
2023/06/21 10:33:37;;;;;;;11.05;10.00;;;29.50;99.90;;;;;;5060113;28;20205;-78
2023/06/21 10:36:06;;;;;;;11.10;10.10;;;29.70;99.90;;;;;;5068902;28;20243;-79
2023/06/21 10:38:37;;;;;;;11.30;10.20;;;30.00;99.90;;;;;;5051945;28;20224;-77
2023/06/21 10:41:05;;;;;;;14.13;12.82;;;30.10;99.90;;;;;;5051827;28;20254;-77
2023/06/21 10:43:34;;;;;;;13.88;12.68;;;30.20;99.90;;;;;;5050707;28;20209;-77
2023/06/21 10:46:05;;;;;;;14.52;13.15;;;30.10;99.90;;;;;;5052333;28;20212;-77
2023/06/21 10:48:33;;;;;;;14.13;12.88;;;30.00;99.90;;;;;;5051705;28;20753;-77
2023/06/21 10:51:02;;;;;;;13.93;12.82;;;29.70;99.90;;;;;;5052227;28;20284;-78
2023/06/21 10:53:33;;;;;;;15.38;13.85;;;29.50;99.90;;;;;;5069348;28;20235;-79
2023/06/21 10:56:01;;;;;;;14.88;13.57;;;29.60;99.90;;;;;;5060483;28;20232;-78
2023/06/21 10:58:29;;;;;;;15.27;13.98;;;29.70;99.90;;;;;;5052325;28;20209;-79
2023/06/21 11:00:57;;;;;;;12.07;11.10;;;29.80;99.90;;;;;;5051265;28;20223;-79
2023/06/21 11:03:27;;;;;;;9.77;8.98;;;29.80;99.90;;;;;;5069931;28;20196;-77
2023/06/21 11:06:23;;;;;;;6.30;5.70;;;29.60;99.90;;;;;;5051310;28;20720;-77
2023/06/21 11:08:50;;;;;;;5.03;4.55;;;29.50;99.90;;;;;;5052035;28;20220;-77
2023/06/21 11:11:40;;;;;;;5.57;4.57;;;29.40;99.90;;;;;;5071251;28;20213;-80
2023/06/21 11:14:07;;;;;;;4.75;3.78;;;29.40;99.90;;;;;;5062264;28;20213;-79
2023/06/21 11:16:46;;;;;;;3.65;3.35;;;29.30;99.90;;;;;;5051412;28;20817;-80
2023/06/21 11:19:14;;;;;;;4.35;2.80;;;29.40;99.90;;;;;;5069140;28;20216;-78
2023/06/21 11:21:49;;;;;;;3.45;2.20;;;29.50;99.90;;;;;;5068839;28;20218;-77
2023/06/21 11:24:19;;;;;;;4.60;2.30;;;29.30;99.90;;;;;;5068661;28;20688;-78
2023/06/21 11:27:13;;;;;;;2.80;1.83;;;29.10;99.90;;;;;;5051691;28;20683;-76
2023/06/21 11:29:41;;;;;;;2.70;1.95;;;29.20;99.90;;;;;;5051309;28;20266;-76
2023/06/21 11:32:14;;;;;;;1.80;1.60;;;29.00;99.90;;;;;;5051382;28;20649;-80
2023/06/21 11:34:58;;;;;;;2.80;1.48;;;29.10;99.90;;;;;;5051190;28;20236;-79
2023/06/21 11:37:40;;;;;;;4.10;1.60;;;29.20;99.60;;;;;;5051385;28;20656;-78
2023/06/21 11:40:20;;;;;;;2.33;1.70;;;29.50;99.70;;;;;;5061078;28;20294;-78
2023/06/21 11:42:55;;;;;;;2.45;1.60;;;29.40;98.60;;;;;;5052753;28;20263;-77
2023/06/21 11:45:35;;;;;;;3.45;2.17;;;29.50;98.80;;;;;;5069006;28;20200;-77
2023/06/21 11:48:10;;;;;;;2.08;1.55;;;29.70;99.00;;;;;;5061047;28;20208;-77
2023/06/21 11:50:47;;;;;;;3.38;1.90;;;29.60;98.70;;;;;;5051257;28;20299;-79
2023/06/21 11:53:30;;;;;;;2.28;1.55;;;29.70;98.10;;;;;;5051214;28;20239;-79
2023/06/21 11:56:02;;;;;;;2.38;1.50;;;29.70;98.20;;;;;;5042984;28;20326;-78
2023/06/21 11:58:29;;;;;;;2.15;1.58;;;29.70;98.30;;;;;;5051305;28;20222;-78
2023/06/21 12:00:56;;;;;;;2.88;1.70;;;29.80;98.00;;;;;;5050627;28;20196;-78
2023/06/21 12:03:27;;;;;;;2.47;1.73;;;29.90;98.30;;;;;;5050598;28;20196;-78
2023/06/21 12:05:57;;;;;;;2.42;1.60;;;29.90;98.50;;;;;;5055873;28;20602;-77
2023/06/21 12:08:26;;;;;;;2.70;1.92;;;29.90;98.30;;;;;;5050306;28;20768;-79
2023/06/21 12:11:01;;;;;;;2.50;2.00;;;29.50;98.50;;;;;;5050837;28;20208;-78
2023/06/21 12:13:37;;;;;;;4.05;2.00;;;29.30;98.80;;;;;;5050931;28;20200;-81
2023/06/21 12:16:08;;;;;;;4.10;1.83;;;29.20;98.60;;;;;;5030733;28;20320;-78
2023/06/21 12:18:38;;;;;;;2.85;2.33;;;29.30;98.60;;;;;;5048162;28;20215;-76
2023/06/21 12:21:09;;;;;;;4.20;2.00;;;29.50;99.20;;;;;;5050874;28;20687;-78
2023/06/21 12:23:36;;;;;;;2.80;2.03;;;29.40;98.60;;;;;;5050288;28;20314;-77
2023/06/21 12:26:07;;;;;;;3.78;1.80;;;29.50;98.60;;;;;;5050162;28;20204;-79
2023/06/21 12:28:35;;;;;;;1.95;1.55;;;29.60;97.90;;;;;;5050166;28;20547;-79
2023/06/21 12:31:04;;;;;;;2.47;2.00;;;29.80;97.80;;;;;;5050210;28;20301;-79
2023/06/21 12:33:34;;;;;;;2.88;2.08;;;29.70;96.80;;;;;;5050409;28;20209;-77
2023/06/21 12:36:25;;;;;;;2.22;1.70;;;29.90;97.30;;;;;;5059767;28;20232;-77
2023/06/21 12:39:00;;;;;;;4.05;2.70;;;30.10;96.60;;;;;;5058055;28;20248;-77
2023/06/21 12:41:29;;;;;;;2.47;1.90;;;30.20;97.00;;;;;;5058599;28;20302;-78
2023/06/21 12:44:05;;;;;;;2.90;1.85;;;30.20;96.40;;;;;;5067951;28;20216;-78
2023/06/21 12:46:38;;;;;;;3.35;1.83;;;30.30;96.00;;;;;;5067981;28;20208;-79
2023/06/21 12:49:06;;;;;;;2.70;1.90;;;30.10;96.40;;;;;;5049553;28;20215;-79
2023/06/21 12:51:35;;;;;;;2.70;1.92;;;30.20;95.50;;;;;;5049982;28;20224;-78
2023/06/21 12:54:07;;;;;;;3.83;1.98;;;30.20;95.60;;;;;;5049985;28;20276;-78
2023/06/21 12:56:36;;;;;;;2.83;2.05;;;30.30;96.10;;;;;;5049316;28;20238;-78
2023/06/21 12:59:04;;;;;;;3.60;1.70;;;30.30;95.80;;;;;;5049234;28;20209;-76
2023/06/21 13:01:32;;;;;;;2.38;1.90;;;30.20;96.20;;;;;;5050539;28;20208;-76
2023/06/21 13:04:03;;;;;;;2.33;2.10;;;30.10;96.20;;;;;;5064131;28;20212;-77
2023/06/21 13:06:30;;;;;;;4.38;1.95;;;30.20;96.20;;;;;;5067156;28;20236;-77
2023/06/21 13:08:57;;;;;;;2.30;1.90;;;30.20;96.60;;;;;;5050082;28;20236;-77
2023/06/21 13:11:25;;;;;;;4.45;2.13;;;30.00;96.00;;;;;;5045728;28;20228;-77
2023/06/21 13:13:53;;;;;;;3.20;1.92;;;30.00;96.00;;;;;;5049048;28;20216;-78
2023/06/21 13:16:20;;;;;;;2.58;2.15;;;29.80;95.50;;;;;;5049428;28;20231;-78
2023/06/21 13:18:48;;;;;;;2.78;2.10;;;29.50;95.40;;;;;;5049956;28;20243;-77
2023/06/21 13:21:17;;;;;;;2.92;1.80;;;29.60;95.90;;;;;;5067129;28;20299;-77
2023/06/21 13:23:45;;;;;;;3.63;2.03;;;29.80;96.00;;;;;;5049216;28;20217;-79
2023/06/21 13:26:12;;;;;;;2.85;1.75;;;30.00;95.40;;;;;;5049382;28;20220;-75
2023/06/21 13:28:39;;;;;;;2.45;1.70;;;29.90;94.60;;;;;;5049517;28;20208;-76
2023/06/21 13:31:06;;;;;;;2.45;1.73;;;30.00;94.40;;;;;;5049278;28;20227;-78
2023/06/21 13:33:34;;;;;;;2.63;1.70;;;30.30;94.00;;;;;;5057551;28;20717;-76
2023/06/21 13:36:00;;;;;;;2.90;1.77;;;30.50;93.40;;;;;;5049261;28;20236;-76
2023/06/21 13:38:30;;;;;;;1.95;1.45;;;30.70;93.40;;;;;;5059198;28;20715;-74
2023/06/21 13:40:57;;;;;;;2.42;1.70;;;30.80;93.20;;;;;;5052837;28;20212;-77
2023/06/21 13:43:24;;;;;;;2.35;1.77;;;31.00;93.10;;;;;;5052572;28;20227;-78
2023/06/21 13:45:51;;;;;;;2.42;1.65;;;30.90;92.70;;;;;;5061277;28;20359;-77
2023/06/21 13:48:18;;;;;;;2.53;1.50;;;30.70;92.40;;;;;;5053300;28;20216;-78
2023/06/21 13:50:45;;;;;;;4.13;1.60;;;30.50;92.30;;;;;;5052836;28;20217;-78
2023/06/21 13:53:12;;;;;;;2.05;1.55;;;30.40;92.40;;;;;;5070905;28;20225;-77
2023/06/21 13:55:38;;;;;;;4.00;2.08;;;30.40;92.30;;;;;;5052529;28;20232;-79
2023/06/21 13:58:05;;;;;;;3.08;1.70;;;30.30;92.30;;;;;;5052945;28;20594;-77
2023/06/21 14:00:32;;;;;;;3.47;1.50;;;30.40;92.50;;;;;;5052859;28;20537;-77
2023/06/21 14:02:59;;;;;;;1.88;1.60;;;30.50;92.40;;;;;;5052914;28;20247;-78